Flight Number: EUR2429 Duration: 6:00
Departure: Casablanca Int'l (GMMN) at 06:00 Distance: 2562 Nm
Arrival: Jeddah King Abdul Aziz (OEJN) at 12:00 Equipment: B757-200

Weather Information
Nouasseur, Morocco (GMMN) 33-22N 007-35W 206M May 23, 2018 - 08:00 PM EDT / 2018.05.24 0000 UTC
Wind: from the SSE (150 degrees) at 5 MPH (4 KT):0
Visibility: greater than 7 mile(s):0
Sky conditions: partly cloudy Temperature: 57 F (14 C) Dew Point: 55 F (13 C) Relative Humidity: 93% Pressure (altimeter): 30.00 in. Hg (1016 hPa)
ob: GMMN 240000Z 15004KT 9999 SCT016 14/13 Q1016 NOSIG cycle: 0
Sunrise: 05:27 Sunset: 19:26 (UTC)

Jeddah King Abdul Aziz International Airport , Saudi Arabia (OEJN) 21-42N 039-11E 17M May 23, 2018 - 08:00 PM EDT / 2018.05.24 0000 UTC
Wind: from the NNE (020 degrees) at 2 MPH (2 KT):0
Visibility: greater than 7 mile(s):0 Temperature: 87 F (31 C) Dew Point: 59 F (15 C) Relative Humidity: 37% Pressure (altimeter): 29.62 in. Hg (1003 hPa)
ob: OEJN 240000Z 02002KT CAVOK 31/15 Q1003 NOSIG cycle: 0
Sunrise: 02:44 Sunset: 15:56 (UTC)

TAF:2018/05/23 18:03 TAF OEJN 231700Z 2318/2424 36010KT CAVOK BECMG 2402/2404 08008KT BECMG 2410/2412 34020KT

This route has never been flown.

Route map